馬公航空站 - ATIS

METAR RCQC 252030Z 02002KT 9999 FEW012 SCT025 BKN040 24/23 Q1009 RMK A2982=

站台狀態:Online
最後更新:2019-05-26 04:45:03